Time;durP1;ratioP1;P1;durP2;ratioP2;P2;SDS_P1;SDS_P2;PMS_P1;PMS_P2;Temp;Humidity;BMP_temperature;BMP_pressure;BME280_temperature;BME280_humidity;BME280_pressure;Samples;Min_cycle;Max_cycle;Signal;HPM_P1;HPM_P2
2022/12/14 00:00:29;;;;;;;10.82;4.50;;;;;;;;;;4983255;28;20051;-82
2022/12/14 00:02:55;;;;;;;14.20;6.28;;;;;;;;;;4982965;28;20069;-84
2022/12/14 00:05:20;;;;;;;11.82;5.40;;;;;;;;;;4981233;28;20054;-84
2022/12/14 00:07:46;;;;;;;8.88;4.78;;;;;;;;;;4983754;28;20026;-82
2022/12/14 00:10:11;;;;;;;10.32;4.63;;;;;;;;;;4983299;28;20034;-82
2022/12/14 00:12:36;;;;;;;9.95;3.08;;;;;;;;;;4985392;28;20078;-82
2022/12/14 00:15:02;;;;;;;12.27;5.97;;;;;;;;;;4983833;28;20023;-81
2022/12/14 00:17:28;;;;;;;11.63;4.93;;;;;;;;;;4986117;28;20054;-84
2022/12/14 00:19:53;;;;;;;10.43;5.28;;;;;;;;;;4986973;28;20046;-81
2022/12/14 00:22:48;;;;;;;8.80;4.15;;;;;;;;;;4983694;28;20062;-81
2022/12/14 00:25:14;;;;;;;11.75;5.32;;;;;;;;;;4977756;28;20035;-82
2022/12/14 00:27:44;;;;;;;13.52;6.15;;;;;;;;;;4983961;28;20543;-83
2022/12/14 00:30:14;;;;;;;11.98;5.18;;;;;;;;;;4983592;28;20138;-83
2022/12/14 00:32:40;;;;;;;8.93;4.60;;;;;;;;;;4982739;28;20027;-82
2022/12/14 00:35:08;;;;;;;10.95;4.93;;;;;;;;;;4984417;28;20375;-82
2022/12/14 00:37:34;;;;;;;6.60;3.38;;;;;;;;;;4986207;28;20027;-83
2022/12/14 00:39:59;;;;;;;8.88;3.53;;;;;;;;;;4983799;28;20045;-83
2022/12/14 00:42:24;;;;;;;9.20;4.07;;;;;;;;;;4985593;28;20023;-83
2022/12/14 00:44:49;;;;;;;10.85;5.25;;;;;;;;;;4985613;28;20022;-82
2022/12/14 00:47:15;;;;;;;9.38;4.75;;;;;;;;;;4984129;28;20025;-82
2022/12/14 00:49:40;;;;;;;6.00;3.40;;;;;;;;;;4984792;28;20161;-82
2022/12/14 00:52:05;;;;;;;5.93;2.53;;;;;;;;;;4985582;28;20034;-82
2022/12/14 00:54:31;;;;;;;9.07;4.40;;;;;;;;;;4985495;28;20388;-82
2022/12/14 00:56:56;;;;;;;6.25;3.22;;;;;;;;;;4985575;28;20031;-81
2022/12/14 00:59:21;;;;;;;8.93;3.50;;;;;;;;;;4983955;28;20027;-81
2022/12/14 01:01:46;;;;;;;11.90;5.03;;;;;;;;;;4983589;28;20066;-81
2022/12/14 01:04:18;;;;;;;7.28;4.15;;;;;;;;;;4983674;28;20023;-81
2022/12/14 01:06:48;;;;;;;7.55;2.80;;;;;;;;;;4983269;28;20038;-82
2022/12/14 01:09:14;;;;;;;6.82;3.33;;;;;;;;;;4983299;28;20099;-81
2022/12/14 01:11:40;;;;;;;10.73;4.32;;;;;;;;;;4982904;28;20125;-82
2022/12/14 01:14:06;;;;;;;8.55;4.20;;;;;;;;;;4984509;28;20034;-82
2022/12/14 01:16:32;;;;;;;7.15;3.40;;;;;;;;;;4983131;28;20026;-84
2022/12/14 01:18:59;;;;;;;9.13;4.63;;;;;;;;;;4985699;28;20086;-83
2022/12/14 01:21:24;;;;;;;6.53;3.83;;;;;;;;;;4983716;28;20440;-82
2022/12/14 01:23:52;;;;;;;11.15;4.22;;;;;;;;;;4984161;28;20081;-81
2022/12/14 01:26:21;;;;;;;8.50;1.77;;;;;;;;;;4984550;28;20030;-82
2022/12/14 01:28:51;;;;;;;5.38;3.10;;;;;;;;;;4984161;28;20054;-82
2022/12/14 01:31:20;;;;;;;12.48;5.10;;;;;;;;;;4985249;28;20341;-82
2022/12/14 01:33:46;;;;;;;7.82;4.25;;;;;;;;;;4984221;28;20054;-81
2022/12/14 01:36:14;;;;;;;11.82;3.30;;;;;;;;;;4982289;28;20500;-82
2022/12/14 01:38:40;;;;;;;10.27;4.88;;;;;;;;;;4982107;28;20030;-81
2022/12/14 01:41:06;;;;;;;10.40;4.47;;;;;;;;;;4982730;28;20027;-81
2022/12/14 01:43:59;;;;;;;10.02;4.18;;;;;;;;;;4985232;28;20035;-83
2022/12/14 01:46:58;;;;;;;9.57;4.47;;;;;;;;;;4982863;28;20035;-83
2022/12/14 01:49:41;;;;;;;12.52;4.68;;;;;;;;;;4983351;28;20457;-84
2022/12/14 01:52:37;;;;;;;6.32;3.40;;;;;;;;;;4982677;28;20388;-83
2022/12/14 01:55:14;;;;;;;9.43;4.00;;;;;;;;;;4981700;28;20033;-82
2022/12/14 01:57:49;;;;;;;10.55;4.35;;;;;;;;;;4983095;28;20018;-83
2022/12/14 02:00:15;;;;;;;5.32;2.78;;;;;;;;;;4983766;28;20022;-83
2022/12/14 02:02:47;;;;;;;6.53;3.08;;;;;;;;;;4984204;28;20094;-83
2022/12/14 02:05:14;;;;;;;5.10;2.42;;;;;;;;;;4983134;28;20022;-82
2022/12/14 02:07:42;;;;;;;8.13;4.75;;;;;;;;;;4982845;28;20058;-84
2022/12/14 02:10:08;;;;;;;9.57;4.78;;;;;;;;;;4983930;28;20026;-81
2022/12/14 02:12:47;;;;;;;6.57;3.15;;;;;;;;;;4984085;28;20031;-82
2022/12/14 02:15:13;;;;;;;8.93;4.13;;;;;;;;;;4982176;28;20114;-83
2022/12/14 02:17:42;;;;;;;9.52;4.63;;;;;;;;;;4982667;28;20058;-84
2022/12/14 02:20:08;;;;;;;4.25;2.60;;;;;;;;;;4982279;28;20130;-83
2022/12/14 02:22:55;;;;;;;7.35;3.33;;;;;;;;;;4983129;28;20031;-83
2022/12/14 02:25:39;;;;;;;10.45;4.82;;;;;;;;;;4983293;28;20027;-83
2022/12/14 02:28:30;;;;;;;9.07;3.88;;;;;;;;;;4983223;28;20034;-83
2022/12/14 02:31:43;;;;;;;10.38;5.25;;;;;;;;;;4981255;28;20026;-83
2022/12/14 02:34:23;;;;;;;8.13;3.35;;;;;;;;;;4924070;29;20042;-83
2022/12/14 02:37:27;;;;;;;8.23;3.65;;;;;;;;;;4981625;28;20039;-83
2022/12/14 02:40:23;;;;;;;10.50;4.25;;;;;;;;;;4979344;28;20117;-82
2022/12/14 02:43:10;;;;;;;8.20;3.95;;;;;;;;;;4980778;28;20492;-82
2022/12/14 02:45:43;;;;;;;6.70;4.07;;;;;;;;;;4978301;28;20437;-83
2022/12/14 02:48:17;;;;;;;8.18;4.10;;;;;;;;;;4979611;28;20035;-82
2022/12/14 02:51:05;;;;;;;10.52;4.95;;;;;;;;;;4981866;28;20114;-82
2022/12/14 02:53:35;;;;;;;7.88;3.78;;;;;;;;;;4983540;28;20027;-83
2022/12/14 02:56:07;;;;;;;7.40;3.90;;;;;;;;;;4984170;28;20485;-83
2022/12/14 02:58:37;;;;;;;6.35;2.70;;;;;;;;;;4985958;28;20136;-84
2022/12/14 03:01:04;;;;;;;9.63;4.80;;;;;;;;;;4985094;28;20022;-83
2022/12/14 03:03:29;;;;;;;5.18;2.58;;;;;;;;;;4985533;28;20499;-83
2022/12/14 03:05:59;;;;;;;8.68;3.78;;;;;;;;;;4984701;28;20037;-83
2022/12/14 03:08:26;;;;;;;7.70;3.83;;;;;;;;;;4986099;28;20368;-82
2022/12/14 03:10:56;;;;;;;9.77;5.15;;;;;;;;;;4984495;28;20050;-83
2022/12/14 03:13:45;;;;;;;11.27;4.15;;;;;;;;;;4984361;28;20027;-83
2022/12/14 03:16:15;;;;;;;7.28;3.30;;;;;;;;;;4985697;28;20030;-82
2022/12/14 03:18:48;;;;;;;15.27;5.40;;;;;;;;;;4984876;28;20084;-83
2022/12/14 03:21:20;;;;;;;10.52;4.57;;;;;;;;;;4986532;28;20055;-82
2022/12/14 03:23:47;;;;;;;9.95;4.63;;;;;;;;;;4987770;28;20030;-82
2022/12/14 03:26:28;;;;;;;12.05;5.32;;;;;;;;;;4986894;28;20026;-81
2022/12/14 03:28:59;;;;;;;6.90;3.90;;;;;;;;;;4986912;28;20023;-83
2022/12/14 03:31:31;;;;;;;10.68;5.47;;;;;;;;;;4984481;28;20022;-83
2022/12/14 03:33:58;;;;;;;7.28;3.78;;;;;;;;;;4985718;28;20030;-84
2022/12/14 03:36:29;;;;;;;8.23;4.43;;;;;;;;;;4987786;28;20101;-83
2022/12/14 03:38:57;;;;;;;7.68;4.35;;;;;;;;;;4988194;28;20045;-82
2022/12/14 03:41:38;;;;;;;11.63;5.45;;;;;;;;;;4987910;28;20126;-83
2022/12/14 03:44:38;;;;;;;4.00;2.20;;;;;;;;;;4982961;28;20428;-81
2022/12/14 03:47:13;;;;;;;8.77;4.13;;;;;;;;;;4984701;28;20022;-83
2022/12/14 03:50:02;;;;;;;7.00;4.05;;;;;;;;;;4985784;28;20050;-83
2022/12/14 03:52:36;;;;;;;7.25;3.80;;;;;;;;;;4985543;28;20034;-83
2022/12/14 03:55:19;;;;;;;6.43;3.53;;;;;;;;;;4986455;28;20441;-83
2022/12/14 03:58:08;;;;;;;6.22;3.22;;;;;;;;;;4985490;28;20392;-83
2022/12/14 04:00:41;;;;;;;9.38;4.68;;;;;;;;;;4984809;28;20066;-83
2022/12/14 04:03:28;;;;;;;;;;;;;;;;;;4984965;28;20077;-83
2022/12/14 04:06:01;;;;;;;6.47;3.63;;;;;;;;;;4984560;28;19933;-81
2022/12/14 04:08:33;;;;;;;8.55;4.00;;;;;;;;;;4984923;28;20026;-81
2022/12/14 04:19:48;;;;;;;13.30;4.80;;;;;;;;;;4984102;28;20404;-82
2022/12/14 04:22:18;;;;;;;8.63;3.90;;;;;;;;;;4985315;28;20474;-83
2022/12/14 04:27:39;;;;;;;11.45;5.07;;;;;;;;;;4985794;28;20033;-82
2022/12/14 04:30:06;;;;;;;9.25;4.05;;;;;;;;;;4984850;28;20038;-82
2022/12/14 04:32:37;;;;;;;12.02;5.32;;;;;;;;;;4984674;28;20438;-81
2022/12/14 04:35:29;;;;;;;8.63;4.30;;;;;;;;;;4985096;28;20031;-82
2022/12/14 04:38:01;;;;;;;10.52;4.00;;;;;;;;;;4985536;28;20037;-83
2022/12/14 04:40:35;;;;;;;10.23;5.05;;;;;;;;;;4985805;28;20493;-82
2022/12/14 04:43:05;;;;;;;10.32;4.88;;;;;;;;;;4983865;28;20026;-83
2022/12/14 04:45:34;;;;;;;9.93;2.97;;;;;;;;;;4986338;28;20113;-82
2022/12/14 04:48:41;;;;;;;13.60;4.95;;;;;;;;;;4986027;28;20065;-81
2022/12/14 04:51:12;;;;;;;9.57;4.40;;;;;;;;;;4907821;29;20024;-83
2022/12/14 04:53:40;;;;;;;8.13;3.83;;;;;;;;;;4977711;28;20066;-83
2022/12/14 04:56:22;;;;;;;10.93;5.00;;;;;;;;;;4986352;28;20114;-83
2022/12/14 04:58:48;;;;;;;10.80;4.97;;;;;;;;;;4987477;28;20029;-83
2022/12/14 05:01:44;;;;;;;7.75;4.55;;;;;;;;;;4985916;28;20126;-82
2022/12/14 05:04:32;;;;;;;11.77;5.38;;;;;;;;;;4985523;28;20058;-83
2022/12/14 05:07:28;;;;;;;9.25;5.45;;;;;;;;;;4981815;28;20027;-82
2022/12/14 05:09:59;;;;;;;8.82;4.43;;;;;;;;;;4982622;28;20039;-83
2022/12/14 05:12:35;;;;;;;8.57;4.57;;;;;;;;;;4985501;28;20031;-82
2022/12/14 05:15:14;;;;;;;11.32;5.05;;;;;;;;;;4984195;28;20381;-83
2022/12/14 05:17:40;;;;;;;11.35;4.30;;;;;;;;;;4983952;28;20109;-83
2022/12/14 05:20:13;;;;;;;4.50;2.63;;;;;;;;;;4984210;28;20030;-82
2022/12/14 05:22:39;;;;;;;11.52;5.53;;;;;;;;;;4987764;28;20046;-81
2022/12/14 05:25:05;;;;;;;8.80;4.15;;;;;;;;;;4986402;28;20018;-82
2022/12/14 05:27:30;;;;;;;11.38;5.25;;;;;;;;;;4985541;28;20035;-83
2022/12/14 05:29:56;;;;;;;9.13;4.40;;;;;;;;;;4985606;28;20074;-81
2022/12/14 05:32:21;;;;;;;10.73;5.30;;;;;;;;;;4984455;28;20030;-83
2022/12/14 05:34:46;;;;;;;11.20;5.53;;;;;;;;;;4985916;28;20044;-82
2022/12/14 05:37:11;;;;;;;5.25;2.47;;;;;;;;;;4984368;28;20027;-82
2022/12/14 05:39:37;;;;;;;6.72;3.05;;;;;;;;;;4984409;28;20492;-84
2022/12/14 05:42:02;;;;;;;9.13;4.05;;;;;;;;;;4990869;28;20129;-83
2022/12/14 05:44:27;;;;;;;7.35;3.03;;;;;;;;;;4981044;28;20191;-83
2022/12/14 05:46:53;;;;;;;5.43;2.85;;;;;;;;;;4985672;28;20021;-82
2022/12/14 05:49:18;;;;;;;6.38;4.07;;;;;;;;;;4985839;28;20030;-84
2022/12/14 05:51:43;;;;;;;11.10;4.00;;;;;;;;;;4982980;28;20063;-84
2022/12/14 05:54:08;;;;;;;6.75;3.60;;;;;;;;;;4986487;28;20022;-85
2022/12/14 05:56:34;;;;;;;14.68;4.95;;;;;;;;;;4986642;28;20023;-84
2022/12/14 05:59:01;;;;;;;6.57;3.08;;;;;;;;;;4988237;28;20110;-83
2022/12/14 06:01:26;;;;;;;10.80;5.18;;;;;;;;;;4987457;28;20030;-84
2022/12/14 06:03:52;;;;;;;4.88;2.60;;;;;;;;;;4988556;28;20031;-85
2022/12/14 06:06:18;;;;;;;7.57;4.07;;;;;;;;;;4989225;28;20081;-84
2022/12/14 06:08:44;;;;;;;11.20;4.95;;;;;;;;;;4990624;28;20031;-84
2022/12/14 06:11:15;;;;;;;11.32;5.28;;;;;;;;;;4987828;28;20374;-84
2022/12/14 06:13:41;;;;;;;10.30;5.05;;;;;;;;;;4988682;28;20030;-84
2022/12/14 06:16:14;;;;;;;5.97;3.03;;;;;;;;;;4988952;28;20058;-83
2022/12/14 06:18:41;;;;;;;10.68;4.47;;;;;;;;;;4987959;28;20037;-83
2022/12/14 06:21:07;;;;;;;6.65;3.92;;;;;;;;;;4986608;28;20034;-83
2022/12/14 06:23:32;;;;;;;5.47;2.67;;;;;;;;;;4987550;28;20423;-83
2022/12/14 06:25:57;;;;;;;8.07;3.47;;;;;;;;;;4985453;28;20083;-82
2022/12/14 06:28:23;;;;;;;9.02;4.47;;;;;;;;;;4986742;28;20027;-82
2022/12/14 06:30:48;;;;;;;8.02;3.75;;;;;;;;;;4985963;28;20066;-83
2022/12/14 06:33:14;;;;;;;11.10;5.25;;;;;;;;;;4986107;28;20031;-83
2022/12/14 06:35:43;;;;;;;7.70;4.10;;;;;;;;;;4987275;28;20050;-83
2022/12/14 06:38:09;;;;;;;4.50;2.85;;;;;;;;;;4986055;28;20094;-83
2022/12/14 06:40:35;;;;;;;6.93;3.55;;;;;;;;;;4988037;28;20045;-83
2022/12/14 06:43:00;;;;;;;7.32;3.03;;;;;;;;;;4987661;28;20058;-83
2022/12/14 06:45:27;;;;;;;5.88;3.40;;;;;;;;;;4984545;28;20118;-83
2022/12/14 06:47:52;;;;;;;12.77;5.22;;;;;;;;;;4986692;28;20023;-84
2022/12/14 06:50:18;;;;;;;6.88;3.30;;;;;;;;;;4985803;28;20062;-84
2022/12/14 06:52:43;;;;;;;4.07;2.08;;;;;;;;;;4988094;28;20042;-85
2022/12/14 06:55:08;;;;;;;2.83;2.15;;;;;;;;;;4985469;28;20033;-84
2022/12/14 06:57:34;;;;;;;11.05;4.55;;;;;;;;;;4985849;28;20062;-84
2022/12/14 06:59:59;;;;;;;12.25;4.90;;;;;;;;;;4985488;28;20033;-83
2022/12/14 07:02:24;;;;;;;11.30;4.43;;;;;;;;;;4984006;28;20051;-83
2022/12/14 07:04:50;;;;;;;11.13;5.05;;;;;;;;;;4982735;28;20046;-85
2022/12/14 07:07:15;;;;;;;7.07;3.75;;;;;;;;;;4984742;28;20023;-82
2022/12/14 07:09:40;;;;;;;5.15;2.58;;;;;;;;;;4983715;28;20033;-82
2022/12/14 07:12:06;;;;;;;6.55;2.75;;;;;;;;;;4983948;28;20089;-84
2022/12/14 07:14:31;;;;;;;4.30;2.15;;;;;;;;;;4984495;28;20023;-84
2022/12/14 07:16:56;;;;;;;7.03;3.65;;;;;;;;;;4983069;28;20033;-84
2022/12/14 07:19:21;;;;;;;5.30;3.15;;;;;;;;;;4983018;28;20042;-85
2022/12/14 07:21:47;;;;;;;11.43;5.90;;;;;;;;;;4985110;28;20061;-83
2022/12/14 07:24:12;;;;;;;7.07;3.75;;;;;;;;;;4985045;28;20349;-84
2022/12/14 07:26:37;;;;;;;12.85;4.47;;;;;;;;;;4984137;28;20027;-84
2022/12/14 07:29:03;;;;;;;8.27;4.28;;;;;;;;;;4979254;28;20093;-84
2022/12/14 07:31:29;;;;;;;10.75;4.80;;;;;;;;;;4980177;28;20110;-85
2022/12/14 07:33:56;;;;;;;12.15;5.13;;;;;;;;;;4979720;28;20030;-84
2022/12/14 07:36:22;;;;;;;7.93;3.95;;;;;;;;;;4979376;28;20046;-83
2022/12/14 07:38:49;;;;;;;3.50;1.73;;;;;;;;;;4984443;28;20030;-83
2022/12/14 07:41:20;;;;;;;9.38;4.65;;;;;;;;;;4984663;28;20596;-82
2022/12/14 07:43:46;;;;;;;9.07;4.55;;;;;;;;;;4987073;28;20345;-84
2022/12/14 07:46:15;;;;;;;5.03;3.17;;;;;;;;;;4987247;28;20046;-82
2022/12/14 07:48:45;;;;;;;9.95;4.47;;;;;;;;;;4985866;28;20077;-82
2022/12/14 07:51:13;;;;;;;10.40;5.50;;;;;;;;;;4985199;28;20121;-84
2022/12/14 07:53:39;;;;;;;11.40;5.50;;;;;;;;;;4986024;28;20342;-85
2022/12/14 07:56:13;;;;;;;10.27;4.28;;;;;;;;;;4987880;28;20030;-83
2022/12/14 07:58:39;;;;;;;10.60;4.55;;;;;;;;;;4985300;28;20050;-83
2022/12/14 08:01:18;;;;;;;11.02;4.80;;;;;;;;;;4986014;28;20071;-83
2022/12/14 08:03:49;;;;;;;13.23;5.85;;;;;;;;;;4982786;28;20042;-82
2022/12/14 08:06:16;;;;;;;5.57;3.15;;;;;;;;;;4985994;28;20027;-84
2022/12/14 08:08:41;;;;;;;13.15;6.18;;;;;;;;;;4986502;28;20066;-83
2022/12/14 08:11:07;;;;;;;10.75;5.25;;;;;;;;;;4986580;28;20121;-83
2022/12/14 08:13:33;;;;;;;12.20;5.70;;;;;;;;;;4986398;28;20030;-82
2022/12/14 08:16:03;;;;;;;10.15;5.10;;;;;;;;;;4986456;28;20058;-83
2022/12/14 08:18:29;;;;;;;7.80;4.05;;;;;;;;;;4986667;28;20053;-82
2022/12/14 08:20:54;;;;;;;11.27;5.82;;;;;;;;;;4987179;28;20023;-83
2022/12/14 08:23:20;;;;;;;10.48;4.63;;;;;;;;;;4985249;28;20026;-82
2022/12/14 08:25:51;;;;;;;5.55;3.00;;;;;;;;;;4985474;28;20018;-83
2022/12/14 08:28:17;;;;;;;5.97;3.67;;;;;;;;;;4985186;28;20031;-83
2022/12/14 08:30:42;;;;;;;11.35;5.13;;;;;;;;;;4984965;28;20023;-83
2022/12/14 08:33:07;;;;;;;6.78;3.85;;;;;;;;;;4986826;28;20041;-84
2022/12/14 08:35:32;;;;;;;11.88;3.95;;;;;;;;;;4985540;28;20023;-83
2022/12/14 08:37:58;;;;;;;13.50;5.60;;;;;;;;;;4985222;28;20071;-84
2022/12/14 08:40:24;;;;;;;13.75;5.80;;;;;;;;;;4985702;28;20029;-85
2022/12/14 08:42:49;;;;;;;13.10;5.50;;;;;;;;;;4984572;28;20098;-83
2022/12/14 08:45:14;;;;;;;10.73;5.45;;;;;;;;;;4989763;28;20030;-83
2022/12/14 08:47:40;;;;;;;9.55;4.18;;;;;;;;;;4982476;28;20070;-84
2022/12/14 08:50:05;;;;;;;11.13;5.70;;;;;;;;;;4983762;28;20019;-85
2022/12/14 08:52:31;;;;;;;18.55;6.93;;;;;;;;;;4984335;28;20061;-85
2022/12/14 08:54:56;;;;;;;9.68;5.35;;;;;;;;;;4980405;28;20081;-83
2022/12/14 08:57:21;;;;;;;8.02;4.45;;;;;;;;;;4976884;28;20098;-81
2022/12/14 08:59:47;;;;;;;11.88;5.68;;;;;;;;;;4978414;28;20061;-81
2022/12/14 09:02:12;;;;;;;13.85;6.82;;;;;;;;;;4978789;28;20391;-83
2022/12/14 09:04:37;;;;;;;14.32;6.43;;;;;;;;;;4978694;28;20026;-80
2022/12/14 09:07:03;;;;;;;10.90;4.35;;;;;;;;;;4980407;28;20023;-81
2022/12/14 09:09:28;;;;;;;10.88;6.22;;;;;;;;;;4980800;28;20087;-80
2022/12/14 09:11:53;;;;;;;12.20;5.75;;;;;;;;;;4981771;28;20023;-80
2022/12/14 09:14:19;;;;;;;6.07;3.55;;;;;;;;;;4982086;28;20030;-81
2022/12/14 09:16:44;;;;;;;7.05;3.83;;;;;;;;;;4981931;28;20027;-80
2022/12/14 09:19:09;;;;;;;12.70;5.57;;;;;;;;;;4982267;28;20027;-80
2022/12/14 09:21:35;;;;;;;12.10;5.28;;;;;;;;;;4982282;28;20058;-80
2022/12/14 09:24:00;;;;;;;10.68;5.30;;;;;;;;;;4984625;28;20037;-78
2022/12/14 09:26:26;;;;;;;12.60;5.75;;;;;;;;;;4983245;28;20468;-80
2022/12/14 09:28:53;;;;;;;8.15;3.78;;;;;;;;;;4981614;28;20118;-80
2022/12/14 09:31:21;;;;;;;6.78;4.00;;;;;;;;;;4980784;28;20023;-80
2022/12/14 09:33:47;;;;;;;16.40;6.93;;;;;;;;;;4980517;28;20125;-80
2022/12/14 09:36:14;;;;;;;10.27;4.38;;;;;;;;;;4981053;28;20066;-83
2022/12/14 09:38:40;;;;;;;7.25;3.95;;;;;;;;;;4981472;28;20033;-83
2022/12/14 09:41:22;;;;;;;9.40;5.47;;;;;;;;;;4981879;28;20031;-82
2022/12/14 09:43:56;;;;;;;11.35;5.68;;;;;;;;;;4981301;28;20027;-82
2022/12/14 09:46:34;;;;;;;10.75;4.82;;;;;;;;;;4981094;28;20073;-82
2022/12/14 09:49:01;;;;;;;8.00;4.47;;;;;;;;;;4981444;28;20026;-80
2022/12/14 09:51:35;;;;;;;9.55;4.45;;;;;;;;;;4980289;28;20088;-80
2022/12/14 09:54:13;;;;;;;8.18;3.58;;;;;;;;;;4980169;28;20031;-82
2022/12/14 09:56:40;;;;;;;12.75;6.15;;;;;;;;;;4981836;28;20444;-81
2022/12/14 09:59:13;;;;;;;11.40;5.47;;;;;;;;;;4980439;28;20030;-80
2022/12/14 10:01:54;;;;;;;14.98;6.40;;;;;;;;;;4979139;28;20027;-81
2022/12/14 10:04:28;;;;;;;4.47;2.85;;;;;;;;;;4981552;28;20037;-81
2022/12/14 10:07:09;;;;;;;7.25;3.60;;;;;;;;;;4979005;28;20033;-81
2022/12/14 10:09:58;;;;;;;13.60;6.35;;;;;;;;;;4979823;28;20030;-81
2022/12/14 10:12:39;;;;;;;7.38;4.63;;;;;;;;;;4979720;28;20023;-81
2022/12/14 10:15:19;;;;;;;10.57;3.75;;;;;;;;;;4978729;28;20489;-79
2022/12/14 10:18:05;;;;;;;14.00;6.70;;;;;;;;;;4982047;28;20026;-81
2022/12/14 10:20:52;;;;;;;14.32;5.97;;;;;;;;;;4982304;28;20033;-82
2022/12/14 10:23:20;;;;;;;8.18;4.55;;;;;;;;;;4980802;28;20412;-84
2022/12/14 10:25:49;;;;;;;7.18;4.03;;;;;;;;;;4981044;28;20074;-81
2022/12/14 10:28:36;;;;;;;7.63;3.63;;;;;;;;;;4982586;28;20030;-85
2022/12/14 10:31:02;;;;;;;7.20;3.72;;;;;;;;;;4980564;28;20026;-82
2022/12/14 10:33:29;;;;;;;14.00;6.30;;;;;;;;;;4984488;28;20034;-80
2022/12/14 10:36:03;;;;;;;13.75;6.80;;;;;;;;;;4981057;28;20026;-80
2022/12/14 10:38:38;;;;;;;13.90;5.55;;;;;;;;;;4980905;28;20018;-80
2022/12/14 10:41:18;;;;;;;15.40;6.07;;;;;;;;;;4981782;28;20492;-81
2022/12/14 10:43:56;;;;;;;11.50;4.47;;;;;;;;;;4983468;28;20031;-82
2022/12/14 10:46:55;;;;;;;10.02;5.72;;;;;;;;;;4983683;28;20027;-80
2022/12/14 10:49:24;;;;;;;16.70;6.53;;;;;;;;;;4959780;28;20081;-81
2022/12/14 10:51:55;;;;;;;12.68;6.78;;;;;;;;;;4981695;28;20030;-81
2022/12/14 10:54:36;;;;;;;15.85;7.05;;;;;;;;;;4983891;28;20031;-82
2022/12/14 10:57:01;;;;;;;16.00;6.75;;;;;;;;;;4983779;28;20043;-81
2022/12/14 10:59:34;;;;;;;13.25;6.32;;;;;;;;;;4983641;28;20408;-82
2022/12/14 11:02:08;;;;;;;12.25;6.45;;;;;;;;;;4980882;28;20026;-80
2022/12/14 11:04:38;;;;;;;12.07;5.82;;;;;;;;;;4981938;28;20050;-83
2022/12/14 11:07:09;;;;;;;10.30;5.53;;;;;;;;;;4983063;28;20090;-80
2022/12/14 11:09:36;;;;;;;14.98;7.22;;;;;;;;;;4981544;28;20038;-81
2022/12/14 11:12:17;;;;;;;9.38;4.93;;;;;;;;;;4983121;28;20460;-80
2022/12/14 11:14:52;;;;;;;13.60;6.97;;;;;;;;;;4985393;28;20449;-82
2022/12/14 11:17:35;;;;;;;12.65;6.72;;;;;;;;;;4985840;28;20030;-82
2022/12/14 11:20:22;;;;;;;15.80;7.75;;;;;;;;;;4986709;28;20022;-80
2022/12/14 11:23:04;;;;;;;13.73;6.50;;;;;;;;;;4986232;28;20027;-80
2022/12/14 11:25:32;;;;;;;14.27;7.30;;;;;;;;;;4986691;28;20103;-82
2022/12/14 11:27:58;;;;;;;9.50;5.50;;;;;;;;;;4985861;28;20384;-83
2022/12/14 11:30:24;;;;;;;15.05;6.88;;;;;;;;;;4987005;28;20030;-80
2022/12/14 11:32:50;;;;;;;13.15;6.00;;;;;;;;;;4986694;28;20069;-80
2022/12/14 11:35:17;;;;;;;12.77;5.88;;;;;;;;;;4986347;28;20026;-80
2022/12/14 11:37:42;;;;;;;13.82;6.50;;;;;;;;;;4987114;28;20035;-82
2022/12/14 11:40:19;;;;;;;10.93;6.05;;;;;;;;;;4988335;28;20027;-82
2022/12/14 11:42:49;;;;;;;15.10;7.20;;;;;;;;;;4985925;28;20041;-82
2022/12/14 11:45:24;;;;;;;15.23;7.15;;;;;;;;;;4987873;28;20031;-82
2022/12/14 11:48:14;;;;;;;12.25;5.63;;;;;;;;;;4987825;28;20484;-83
2022/12/14 11:50:40;;;;;;;17.65;9.20;;;;;;;;;;4981948;28;20110;-83
2022/12/14 11:53:09;;;;;;;9.15;4.90;;;;;;;;;;4981277;28;20374;-83
2022/12/14 11:55:37;;;;;;;12.70;6.30;;;;;;;;;;4980999;28;20031;-81
2022/12/14 11:58:05;;;;;;;10.32;5.22;;;;;;;;;;4981086;28;20054;-83
2022/12/14 12:00:46;;;;;;;14.20;7.45;;;;;;;;;;4980350;28;20103;-83
2022/12/14 12:03:43;;;;;;;8.98;5.60;;;;;;;;;;4982600;28;20177;-80
2022/12/14 12:06:11;;;;;;;14.50;7.45;;;;;;;;;;4981420;28;20027;-81
2022/12/14 12:08:40;;;;;;;9.15;4.63;;;;;;;;;;4985246;28;20113;-83
2022/12/14 12:11:16;;;;;;;8.13;4.88;;;;;;;;;;4983489;28;20050;-82
2022/12/14 12:13:44;;;;;;;15.02;6.93;;;;;;;;;;4985968;28;20027;-82
2022/12/14 12:16:09;;;;;;;14.98;7.65;;;;;;;;;;4986011;28;20030;-82
2022/12/14 12:18:48;;;;;;;15.70;7.10;;;;;;;;;;4985252;28;20058;-81
2022/12/14 12:21:39;;;;;;;14.63;7.25;;;;;;;;;;4986179;28;20027;-80
2022/12/14 12:24:24;;;;;;;19.40;8.15;;;;;;;;;;4985894;28;20112;-83
2022/12/14 12:26:54;;;;;;;;;;;;;;;;;;4985376;28;20086;-83
2022/12/14 12:29:32;;;;;;;16.63;7.22;;;;;;;;;;4985394;28;19938;-82
2022/12/14 12:32:17;;;;;;;13.18;6.00;;;;;;;;;;4984103;28;20034;-82
2022/12/14 12:34:59;;;;;;;15.65;7.43;;;;;;;;;;4984884;28;20058;-82
2022/12/14 12:37:33;;;;;;;19.67;8.20;;;;;;;;;;4985890;28;20023;-82
2022/12/14 12:40:30;;;;;;;19.35;8.45;;;;;;;;;;4985778;28;20109;-82
2022/12/14 12:43:12;;;;;;;12.13;6.65;;;;;;;;;;4949975;28;20053;-82
2022/12/14 12:45:48;;;;;;;19.60;8.32;;;;;;;;;;4984576;28;20054;-80
2022/12/14 12:48:22;;;;;;;12.60;6.57;;;;;;;;;;4982810;28;20037;-81
2022/12/14 12:50:51;;;;;;;16.50;8.18;;;;;;;;;;4987047;28;20035;-83
2022/12/14 12:53:27;;;;;;;10.50;5.18;;;;;;;;;;4988073;28;20039;-82
2022/12/14 12:56:13;;;;;;;18.58;8.27;;;;;;;;;;4986475;28;20026;-82
2022/12/14 12:58:39;;;;;;;19.88;8.75;;;;;;;;;;4986183;28;20022;-80
2022/12/14 13:01:29;;;;;;;19.70;8.38;;;;;;;;;;4984674;28;20082;-81
2022/12/14 13:04:02;;;;;;;17.08;8.88;;;;;;;;;;4984872;28;20037;-80
2022/12/14 13:06:39;;;;;;;13.50;6.82;;;;;;;;;;4985377;28;20031;-81
2022/12/14 13:09:17;;;;;;;18.15;8.68;;;;;;;;;;4984257;28;20041;-82
2022/12/14 13:11:42;;;;;;;21.90;10.15;;;;;;;;;;4983722;28;20023;-81
2022/12/14 13:14:39;;;;;;;23.00;10.45;;;;;;;;;;4984704;28;20035;-82
2022/12/14 13:17:12;;;;;;;21.85;9.60;;;;;;;;;;4967656;28;20551;-82
2022/12/14 13:19:47;;;;;;;20.17;9.77;;;;;;;;;;4985543;28;20030;-81
2022/12/14 13:22:15;;;;;;;19.15;7.85;;;;;;;;;;4984582;28;20031;-81
2022/12/14 13:24:44;;;;;;;18.05;8.70;;;;;;;;;;4985018;28;20393;-80
2022/12/14 13:27:18;;;;;;;21.80;9.70;;;;;;;;;;4983492;28;20400;-81
2022/12/14 13:29:46;;;;;;;19.45;9.32;;;;;;;;;;4984550;28;20033;-81
2022/12/14 13:32:29;;;;;;;20.58;9.32;;;;;;;;;;4984116;28;20029;-80
2022/12/14 13:35:03;;;;;;;18.50;8.45;;;;;;;;;;4984691;28;20022;-81
2022/12/14 13:37:56;;;;;;;21.90;9.27;;;;;;;;;;4986071;28;20030;-81
2022/12/14 13:40:34;;;;;;;18.75;8.80;;;;;;;;;;4984935;28;20446;-81
2022/12/14 13:43:14;;;;;;;19.73;9.43;;;;;;;;;;4986789;28;20035;-80
2022/12/14 13:45:43;;;;;;;21.92;9.15;;;;;;;;;;4984902;28;20026;-83
2022/12/14 13:48:21;;;;;;;22.40;9.90;;;;;;;;;;4984960;28;20099;-82
2022/12/14 13:51:12;;;;;;;17.02;7.50;;;;;;;;;;4985043;28;20111;-80
2022/12/14 13:53:42;;;;;;;22.38;9.85;;;;;;;;;;4966823;28;20463;-81
2022/12/14 13:56:09;;;;;;;22.98;9.82;;;;;;;;;;4982962;28;20030;-80
2022/12/14 13:58:46;;;;;;;18.38;9.02;;;;;;;;;;4983280;28;20026;-81
2022/12/14 14:01:13;;;;;;;20.15;8.35;;;;;;;;;;4983240;28;20037;-82
2022/12/14 14:03:38;;;;;;;20.75;10.10;;;;;;;;;;4986244;28;20039;-81
2022/12/14 14:06:34;;;;;;;21.23;9.50;;;;;;;;;;4985505;28;20523;-79
2022/12/14 14:09:23;;;;;;;22.13;10.18;;;;;;;;;;4983301;28;20046;-83
2022/12/14 14:12:21;;;;;;;15.55;8.25;;;;;;;;;;4983354;28;20523;-81
2022/12/14 14:14:59;;;;;;;15.27;7.03;;;;;;;;;;4984721;28;20030;-80
2022/12/14 14:17:29;;;;;;;18.98;9.30;;;;;;;;;;4982942;28;20039;-81
2022/12/14 14:19:56;;;;;;;20.35;9.43;;;;;;;;;;4984611;28;20495;-82
2022/12/14 14:22:23;;;;;;;24.60;10.60;;;;;;;;;;4982734;28;20192;-82
2022/12/14 14:24:58;;;;;;;23.67;10.45;;;;;;;;;;4985355;28;20450;-80
2022/12/14 14:27:46;;;;;;;22.98;10.55;;;;;;;;;;4982513;28;20419;-80
2022/12/14 14:30:27;;;;;;;14.50;8.30;;;;;;;;;;4983762;28;20031;-81
2022/12/14 14:32:53;;;;;;;21.73;10.07;;;;;;;;;;4984148;28;20105;-81
2022/12/14 14:35:24;;;;;;;19.45;9.02;;;;;;;;;;4983082;28;20023;-80
2022/12/14 14:38:03;;;;;;;19.30;8.68;;;;;;;;;;4981685;28;20022;-81
2022/12/14 14:40:34;;;;;;;19.13;8.35;;;;;;;;;;4982785;28;20038;-82
2022/12/14 14:43:19;;;;;;;19.35;8.65;;;;;;;;;;4982793;28;20098;-82
2022/12/14 14:45:54;;;;;;;20.45;9.05;;;;;;;;;;4983252;28;20025;-81
2022/12/14 14:48:21;;;;;;;20.30;9.20;;;;;;;;;;4986087;28;20420;-81
2022/12/14 14:50:49;;;;;;;19.17;9.43;;;;;;;;;;4987506;28;20034;-82
2022/12/14 14:53:17;;;;;;;25.02;10.93;;;;;;;;;;4987880;28;20027;-81
2022/12/14 14:55:48;;;;;;;26.15;10.77;;;;;;;;;;4986728;28;20069;-81
2022/12/14 14:58:20;;;;;;;24.13;9.85;;;;;;;;;;4985943;28;20026;-81
2022/12/14 15:00:59;;;;;;;28.48;10.57;;;;;;;;;;4986226;28;20027;-81
2022/12/14 15:04:11;;;;;;;22.13;9.30;;;;;;;;;;4984364;28;20034;-79
2022/12/14 15:06:40;;;;;;;23.25;9.57;;;;;;;;;;4957146;28;20027;-81
2022/12/14 15:09:08;;;;;;;23.95;10.40;;;;;;;;;;4984557;28;20054;-80
2022/12/14 15:11:47;;;;;;;24.10;7.97;;;;;;;;;;4984749;28;20424;-81
2022/12/14 15:14:23;;;;;;;30.05;12.25;;;;;;;;;;4986106;28;20033;-79
2022/12/14 15:16:48;;;;;;;21.92;10.55;;;;;;;;;;4984397;28;20033;-80